Home > Products > Valid Products > TAF

000
FTUS42 KJAX 030959 AAB
TAFSSI
TAF AMD
KSSI 030959Z 0310/0406 25006KT P6SM BKN010 BKN250
      TEMPO 0310/0312 BKN006
     FM031300 28005KT P6SM VCSH SCT040 BKN250
     FM031500 32006KT P6SM VCTS BKN040CB BKN250
     FM040000 34005KT P6SM FEW040 BKN250=



000
FTUS42 KJAX 030959 AAB
TAFJAX
TAF AMD
KJAX 030959Z 0310/0406 VRB03KT P6SM SCT005 BKN250
      TEMPO 0310/0312 1SM BR
     FM031500 30008KT P6SM VCTS BKN040CB BKN250
     FM040200 VRB04KT P6SM FEW035 BKN250=



000
FTUS42 KJAX 030707 AAA
TAFSSI
TAF AMD
KSSI 030707Z 0307/0406 VRB03KT P6SM VCSH SCT010 BKN100 BKN250
      TEMPO 0307/0310 BKN015
     FM031300 28005KT P6SM VCSH SCT040 BKN250
     FM031500 32006KT P6SM VCTS BKN040CB BKN250
     FM040000 34005KT P6SM FEW040 BKN250=



000
FTUS42 KJAX 030528
TAFSSI
TAF
KSSI 030528Z 0306/0406 VRB03KT P6SM VCSH SCT040 BKN100 BKN250
     FM031300 28005KT P6SM VCSH SCT040 BKN250
     FM031500 32006KT P6SM VCTS BKN040CB BKN250
     FM040000 34005KT P6SM FEW040 BKN250=



000
FTUS42 KJAX 030528
TAFCRG
TAF
KCRG 030528Z 0306/0406 VRB03KT P6SM BKN250
     FM031500 31009KT P6SM VCTS BKN040CB BKN250
     FM040200 VRB04KT P6SM BKN250=



000
FTUS42 KJAX 030528
TAFGNV
TAF
KGNV 030528Z 0306/0406 23003KT P6SM BKN250
     FM031400 30008KT P6SM SCT040 SCT250
     FM031900 29007KT P6SM VCTS BKN040CB BKN250
     FM040100 VRB04KT P6SM BKN250=



000
FTUS42 KJAX 030528
TAFJAX
TAF
KJAX 030528Z 0306/0406 VRB03KT P6SM BKN250
     FM031500 30008KT P6SM VCTS BKN040CB BKN250
     FM040200 VRB04KT P6SM FEW035 BKN250=



000
FTUS42 KJAX 030238 AAB
TAFSSI
TAF AMD
KSSI 030238Z 0303/0324 VRB06KT P6SM VCSH SCT010 BKN035
      TEMPO 0303/0305 BKN010
     FM030500 21003KT P6SM VCSH SCT040 BKN100 BKN250
     FM030800 25004KT 4SM BR VCSH SCT007 OVC020
     FM031300 28005KT P6SM VCSH SCT040 BKN250
     FM031500 32006KT P6SM VCTS BKN040CB BKN250=



000
FTUS42 KJAX 030212 AAD
TAFCRG
TAF AMD
KCRG 030212Z 0302/0324 VRB03KT P6SM SCT030 BKN250
      TEMPO 0308/0312 5SM BR
     FM031500 30007KT P6SM VCTS BKN040CB BKN250=



000
FTUS42 KJAX 030212 AAD
TAFCRG
TAF AMD
KCRG 030212Z 0302/0324 VRB03KT P6SM SCT030 BKN250
      TEMPO 0308/0312 5SM BR
     FM031500 30007KT P6SM VCTS BKN040CB BKN250=



000
FTUS42 KJAX 030211 AAD
TAFJAX
TAF AMD
KJAX 030211Z 0302/0324 VRB03KT P6SM SCT030 BKN250
      TEMPO 0308/0312 4SM BR
     FM031500 30007KT P6SM VCTS BKN040CB BKN250=



000
FTUS42 KJAX 030211 AAD
TAFJAX
TAF AMD
KJAX 030211Z 0302/0324 VRB03KT P6SM SCT030 BKN250
      TEMPO 0308/0312 4SM BR
     FM031500 30007KT P6SM VCTS BKN040CB BKN250=



000
FTUS42 KJAX 030140 AAC
TAFCRG
TAF AMD
KCRG 030140Z 0302/0324 VRB06KT P6SM VCTS BKN035CB BKN090
     FM030300 VRB03KT P6SM SCT030 BKN250
      TEMPO 0308/0312 5SM BR
     FM031500 30007KT P6SM VCTS BKN040CB BKN250=



000
FTUS42 KJAX 030140 AAC
TAFCRG
TAF AMD
KCRG 030140Z 0302/0324 VRB06KT P6SM VCTS BKN035CB BKN090
     FM030300 VRB03KT P6SM SCT030 BKN250
      TEMPO 0308/0312 5SM BR
     FM031500 30007KT P6SM VCTS BKN040CB BKN250=



000
FTUS42 KJAX 030047 AAA
TAFSSI
TAF AMD
KSSI 030047Z 0301/0324 VRB06KT P6SM VCTS SCT025CB BKN050
      TEMPO 0301/0302 VRB10G18KT 3SM TSRA BKN012 OVC025CB
     FM030500 21003KT P6SM VCSH SCT040 BKN100 BKN250
     FM030800 25004KT 4SM BR VCSH SCT007 OVC020
     FM031300 28005KT P6SM VCSH SCT040 BKN250
     FM031500 32006KT P6SM VCTS BKN040CB BKN250=



000
FTUS42 KJAX 030047 AAA
TAFSSI
TAF AMD
KSSI 030047Z 0301/0324 VRB06KT P6SM VCTS SCT025CB BKN050
      TEMPO 0301/0302 VRB10G18KT 3SM TSRA BKN012 OVC025CB
     FM030500 21003KT P6SM VCSH SCT040 BKN100 BKN250
     FM030800 25004KT 4SM BR VCSH SCT007 OVC020
     FM031300 28005KT P6SM VCSH SCT040 BKN250
     FM031500 32006KT P6SM VCTS BKN040CB BKN250=



000
FTUS42 KJAX 030023 AAB
TAFCRG
TAF AMD
KCRG 030023Z 0300/0324 VRB06KT P6SM VCTS BKN035CB BKN090
      TEMPO 0300/0302 VRB20G35KT 1SM TSRA SCT015 OVC025CB
     FM030300 VRB03KT P6SM SCT030 BKN250
      TEMPO 0308/0312 5SM BR
     FM031500 30007KT P6SM VCTS BKN040CB BKN250=



000
FTUS42 KJAX 030023 AAB
TAFCRG
TAF AMD
KCRG 030023Z 0300/0324 VRB06KT P6SM VCTS BKN035CB BKN090
      TEMPO 0300/0302 VRB20G35KT 1SM TSRA SCT015 OVC025CB
     FM030300 VRB03KT P6SM SCT030 BKN250
      TEMPO 0308/0312 5SM BR
     FM031500 30007KT P6SM VCTS BKN040CB BKN250=



000
FTUS42 KJAX 030006 AAA
TAFCRG
TAF AMD
KCRG 030006Z 0300/0324 VRB06KT P6SM VCTS BKN035CB BKN090
      TEMPO 0300/0302 VRB15G25KT 1SM TSRA SCT015 OVC025CB
     FM030300 VRB03KT P6SM SCT030 BKN250
      TEMPO 0308/0312 5SM BR
     FM031500 30007KT P6SM VCTS BKN040CB BKN250=



000
FTUS42 KJAX 030006 AAA
TAFCRG
TAF AMD
KCRG 030006Z 0300/0324 VRB06KT P6SM VCTS BKN035CB BKN090
      TEMPO 0300/0302 VRB15G25KT 1SM TSRA SCT015 OVC025CB
     FM030300 VRB03KT P6SM SCT030 BKN250
      TEMPO 0308/0312 5SM BR
     FM031500 30007KT P6SM VCTS BKN040CB BKN250=



000
FTUS42 KJAX 030002 AAB
TAFJAX
TAF AMD
KJAX 030002Z 0300/0324 VRB06KT P6SM VCTS BKN035CB BKN090
      TEMPO 0300/0301 VRB12G22KT 1/2SM +TSRA BKN012 OVC025CB
     FM030300 VRB03KT P6SM SCT030 BKN250
      TEMPO 0308/0312 4SM BR
     FM031500 30007KT P6SM VCTS BKN040CB BKN250=



000
FTUS42 KJAX 030002 AAB
TAFJAX
TAF AMD
KJAX 030002Z 0300/0324 VRB06KT P6SM VCTS BKN035CB BKN090
      TEMPO 0300/0301 VRB12G22KT 1/2SM +TSRA BKN012 OVC025CB
     FM030300 VRB03KT P6SM SCT030 BKN250
      TEMPO 0308/0312 4SM BR
     FM031500 30007KT P6SM VCTS BKN040CB BKN250=



000
FTUS42 KJAX 022351 AAA
TAFJAX
TAF AMD
KJAX 022351Z 0300/0324 VRB06KT P6SM VCTS BKN035CB BKN090
      TEMPO 0300/0301 1SM TSRA OVC030CB
     FM030300 VRB03KT P6SM SCT030 BKN250
      TEMPO 0308/0312 4SM BR
     FM031500 30007KT P6SM VCTS BKN040CB BKN250=



000
FTUS42 KJAX 022351 AAA
TAFJAX
TAF AMD
KJAX 022351Z 0300/0324 VRB06KT P6SM VCTS BKN035CB BKN090
      TEMPO 0300/0301 1SM TSRA OVC030CB
     FM030300 VRB03KT P6SM SCT030 BKN250
      TEMPO 0308/0312 4SM BR
     FM031500 30007KT P6SM VCTS BKN040CB BKN250=



000
FTUS42 KJAX 022323
TAFJAX
TAF
KJAX 022323Z 0300/0324 VRB06KT P6SM VCTS BKN035CB BKN090
      TEMPO 0300/0302 3SM TSRA OVC035CB
     FM030300 VRB03KT P6SM SCT030 BKN250
      TEMPO 0308/0312 4SM BR
     FM031500 30007KT P6SM VCTS BKN040CB BKN250=



000
FTUS42 KJAX 022323
TAFCRG
TAF
KCRG 022323Z 0300/0324 VRB06KT P6SM VCTS BKN035CB BKN090
      TEMPO 0300/0302 3SM TSRA OVC035CB
     FM030300 VRB03KT P6SM SCT030 BKN250
      TEMPO 0308/0312 5SM BR
     FM031500 30007KT P6SM VCTS BKN040CB BKN250=



000
FTUS42 KJAX 022323
TAFGNV
TAF
KGNV 022323Z 0300/0324 23003KT P6SM SCT040 BKN250
     FM030800 25002KT 4SM BR SCT250
     FM031300 29005KT P6SM VCSH SCT040 BKN250
     FM031600 29007KT P6SM VCTS BKN040CB BKN250=



000
FTUS42 KJAX 022323
TAFSSI
TAF
KSSI 022323Z 0300/0324 VRB06KT P6SM VCTS SCT025CB BKN050
      TEMPO 0300/0302 VRB20G30KT 1SM TSRA BKN018 OVC025CB
     FM030500 21003KT P6SM VCSH SCT040 BKN100 BKN250
     FM030800 25004KT 4SM BR VCSH SCT007 OVC020
     FM031300 28005KT P6SM VCSH SCT040 BKN250
     FM031500 32006KT P6SM VCTS BKN040CB BKN250=



000
FTUS42 KJAX 022323
TAFSSI
TAF
KSSI 022323Z 0300/0324 VRB06KT P6SM VCTS SCT025CB BKN050
      TEMPO 0300/0302 VRB20G30KT 1SM TSRA BKN018 OVC025CB
     FM030500 21003KT P6SM VCSH SCT040 BKN100 BKN250
     FM030800 25004KT 4SM BR VCSH SCT007 OVC020
     FM031300 28005KT P6SM VCSH SCT040 BKN250
     FM031500 32006KT P6SM VCTS BKN040CB BKN250=



000
FTUS42 KJAX 022323
TAFGNV
TAF
KGNV 022323Z 0300/0324 23003KT P6SM SCT040 BKN250
     FM030800 25002KT 4SM BR SCT250
     FM031300 29005KT P6SM VCSH SCT040 BKN250
     FM031600 29007KT P6SM VCTS BKN040CB BKN250=



000
FTUS42 KJAX 022323
TAFJAX
TAF
KJAX 022323Z 0300/0324 VRB06KT P6SM VCTS BKN035CB BKN090
      TEMPO 0300/0302 3SM TSRA OVC035CB
     FM030300 VRB03KT P6SM SCT030 BKN250
      TEMPO 0308/0312 4SM BR
     FM031500 30007KT P6SM VCTS BKN040CB BKN250=



000
FTUS42 KJAX 022323
TAFCRG
TAF
KCRG 022323Z 0300/0324 VRB06KT P6SM VCTS BKN035CB BKN090
      TEMPO 0300/0302 3SM TSRA OVC035CB
     FM030300 VRB03KT P6SM SCT030 BKN250
      TEMPO 0308/0312 5SM BR
     FM031500 30007KT P6SM VCTS BKN040CB BKN250=



000
FTUS42 KJAX 022216 AAC
TAFSSI
TAF AMD
KSSI 022216Z 0222/0318 07007KT P6SM VCTS SCT025CB BKN050
      TEMPO 0222/0224 VRB20G30KT 1/2SM +TSRA BKN018 OVC025CB
     FM030100 23003KT P6SM VCSH SCT040 BKN100 BKN250
     FM031200 32007KT P6SM VCSH BKN040 OVC100=



000
FTUS42 KJAX 022216 AAC
TAFSSI
TAF AMD
KSSI 022216Z 0222/0318 07007KT P6SM VCTS SCT025CB BKN050
      TEMPO 0222/0224 VRB20G30KT 1/2SM +TSRA BKN018 OVC025CB
     FM030100 23003KT P6SM VCSH SCT040 BKN100 BKN250
     FM031200 32007KT P6SM VCSH BKN040 OVC100=



000
FTUS42 KJAX 022137 AAB
TAFJAX
TAF AMD
KJAX 022137Z 0222/0318 VRB06KT P6SM VCTS SCT025CB BKN090
      TEMPO 0222/0224 VRB10G18KT 3SM TSRA OVC025CB
     FM030000 23003KT P6SM VCSH SCT040 BKN100 BKN250
     FM031200 29007KT P6SM VCSH BKN040 OVC100=



000
FTUS42 KJAX 022014 AAB
TAFGNV
TAF AMD
KGNV 022014Z 0220/0318 22008KT P6SM VCTS SCT035CB BKN050
      TEMPO 0220/0221 VRB10G20KT 3SM TSRA BKN030CB
     FM030000 23003KT P6SM VCSH SCT040 BKN100 BKN250
     FM031200 29007KT P6SM VCSH BKN040 OVC100=



000
FTUS42 KJAX 022008 AAC
TAFJAX
TAF AMD
KJAX 022008Z 0220/0318 VRB06KT P6SM VCTS SCT025CB BKN090
     FM030000 23003KT P6SM VCSH SCT040 BKN100 BKN250
     FM031200 29007KT P6SM VCSH BKN040 OVC100=



000
FTUS42 KJAX 022007 AAB
TAFSSI
TAF AMD
KSSI 022007Z 0220/0318 07007KT P6SM VCTS SCT025CB BKN050
      TEMPO 0220/0223 VRB20G30KT 1SM TSRA BKN018 OVC025CB
     FM030100 23003KT P6SM VCSH SCT040 BKN100 BKN250
     FM031200 32007KT P6SM VCSH BKN040 OVC100=



000
FTUS42 KJAX 021921 AAA
TAFSSI
TAF AMD
KSSI 021921Z 0219/0318 07007KT P6SM VCTS SCT025CB BKN050
      TEMPO 0221/0224 VRB15G25KT 2SM TSRA SCT015 OVC025CB
     FM030100 23003KT P6SM VCSH SCT040 BKN100 BKN250
     FM031200 32007KT P6SM VCSH BKN040 OVC100=



000
FTUS42 KJAX 021921 AAA
TAFGNV
TAF AMD
KGNV 021921Z 0219/0318 22008KT P6SM VCTS SCT035CB BKN050
     FM030000 23003KT P6SM VCSH SCT040 BKN100 BKN250
     FM031200 29007KT P6SM VCSH BKN040 OVC100=



000
FTUS42 KJAX 021921 AAA
TAFGNV
TAF AMD
KGNV 021921Z 0219/0318 22008KT P6SM VCTS SCT035CB BKN050
     FM030000 23003KT P6SM VCSH SCT040 BKN100 BKN250
     FM031200 29007KT P6SM VCSH BKN040 OVC100=



000
FTUS42 KJAX 021919 AAB
TAFCRG
TAF AMD
KCRG 021919Z 0219/0318 VRB06KT P6SM VCTS SCT025CB BKN090
      TEMPO 0219/0221 VRB10G20KT 5SM TSRA BKN025CB
     FM030100 23003KT P6SM VCSH SCT040 BKN100 BKN250
     FM031200 29007KT P6SM VCSH BKN040 OVC100=



000
FTUS42 KJAX 021918 AAB
TAFJAX
TAF AMD
KJAX 021918Z 0219/0318 22006KT P6SM VCTS SCT025CB BKN090
      TEMPO 0219/0221 VRB10G20KT 5SM TSRA BKN025CB
     FM030000 23003KT P6SM VCSH SCT040 BKN100 BKN250
     FM031200 29007KT P6SM VCSH BKN040 OVC100=



000
FTUS42 KJAX 021816 AAA
TAFCRG
TAF AMD
KCRG 021816Z 0218/0318 17006KT P6SM VCTS BKN040CB BKN060
      TEMPO 0218/0221 VRB20G30KT 3SM TSRA BKN025CB
     FM030100 23003KT P6SM VCSH SCT040 BKN100 BKN250
     FM031200 29007KT P6SM VCSH BKN040 OVC100=



000
FTUS42 KJAX 021816 AAA
TAFCRG
TAF AMD
KCRG 021816Z 0218/0318 17006KT P6SM VCTS BKN040CB BKN060
      TEMPO 0218/0221 VRB20G30KT 3SM TSRA BKN025CB
     FM030100 23003KT P6SM VCSH SCT040 BKN100 BKN250
     FM031200 29007KT P6SM VCSH BKN040 OVC100=



000
FTUS42 KJAX 021815 AAA
TAFJAX
TAF AMD
KJAX 021815Z 0218/0318 20006KT P6SM VCTS BKN040CB BKN060
      TEMPO 0218/0221 VRB20G30KT 3SM TSRA BKN025CB
     FM030000 23003KT P6SM VCSH SCT040 BKN100 BKN250
     FM031200 29007KT P6SM VCSH BKN040 OVC100=



000
FTUS42 KJAX 021815 AAA
TAFJAX
TAF AMD
KJAX 021815Z 0218/0318 20006KT P6SM VCTS BKN040CB BKN060
      TEMPO 0218/0221 VRB20G30KT 3SM TSRA BKN025CB
     FM030000 23003KT P6SM VCSH SCT040 BKN100 BKN250
     FM031200 29007KT P6SM VCSH BKN040 OVC100=



000
FTUS42 KJAX 021720
TAFJAX
TAF
KJAX 021720Z 0218/0318 18005KT P6SM VCSH SCT025 BKN050
     FM021900 15006KT P6SM VCTS BKN040CB BKN060
      TEMPO 0219/0222 3SM TSRA BKN025CB
     FM030100 23003KT P6SM VCSH SCT040 BKN100 BKN250
     FM031200 29007KT P6SM VCSH BKN040 OVC100=



000
FTUS42 KJAX 021720
TAFCRG
TAF
KCRG 021720Z 0218/0318 18005KT P6SM VCSH SCT025 BKN050
     FM021900 15006KT P6SM VCTS BKN040CB BKN060
      TEMPO 0219/0222 3SM TSRA BKN025CB
     FM030100 23003KT P6SM VCSH SCT040 BKN100 BKN250
     FM031200 29007KT P6SM VCSH BKN040 OVC100=



000
FTUS42 KJAX 021720
TAFSSI
TAF
KSSI 021720Z 0218/0318 14007KT P6SM VCTS SCT025CB BKN050
      TEMPO 0218/0221 3SM TSRA OVC025CB
     FM030100 23003KT P6SM VCSH SCT040 BKN100 BKN250
     FM031200 32007KT P6SM VCSH BKN040 OVC100=



000
FTUS42 KJAX 021720
TAFGNV
TAF
KGNV 021720Z 0218/0318 25005KT P6SM VCTS SCT035CB BKN050
      TEMPO 0218/0221 3SM TSRA OVC035CB
     FM030000 23003KT P6SM VCSH SCT040 BKN100 BKN250
     FM031200 29007KT P6SM VCSH BKN040 OVC100=



000
FTUS42 KJAX 021720
TAFSSI
TAF
KSSI 021720Z 0218/0318 14007KT P6SM VCTS SCT025CB BKN050
      TEMPO 0218/0221 3SM TSRA OVC025CB
     FM030100 23003KT P6SM VCSH SCT040 BKN100 BKN250
     FM031200 32007KT P6SM VCSH BKN040 OVC100=



000
FTUS42 KJAX 021720
TAFJAX
TAF
KJAX 021720Z 0218/0318 18005KT P6SM VCSH SCT025 BKN050
     FM021900 15006KT P6SM VCTS BKN040CB BKN060
      TEMPO 0219/0222 3SM TSRA BKN025CB
     FM030100 23003KT P6SM VCSH SCT040 BKN100 BKN250
     FM031200 29007KT P6SM VCSH BKN040 OVC100=



000
FTUS42 KJAX 021720
TAFCRG
TAF
KCRG 021720Z 0218/0318 18005KT P6SM VCSH SCT025 BKN050
     FM021900 15006KT P6SM VCTS BKN040CB BKN060
      TEMPO 0219/0222 3SM TSRA BKN025CB
     FM030100 23003KT P6SM VCSH SCT040 BKN100 BKN250
     FM031200 29007KT P6SM VCSH BKN040 OVC100=



000
FTUS42 KJAX 021720
TAFGNV
TAF
KGNV 021720Z 0218/0318 25005KT P6SM VCTS SCT035CB BKN050
      TEMPO 0218/0221 3SM TSRA OVC035CB
     FM030000 23003KT P6SM VCSH SCT040 BKN100 BKN250
     FM031200 29007KT P6SM VCSH BKN040 OVC100=



000
FTUS42 KJAX 021514 AAA
TAFSSI
TAF AMD
KSSI 021514Z 0215/0312 16006KT P6SM VCSH SCT040 BKN050
      TEMPO 0215/0218 3SM TSRA OVC025CB
     FM021800 14007KT P6SM VCTS BKN040CB BKN250
     FM030300 VRB04KT P6SM VCSH SCT025 BKN100 BKN250=



000
FTUS42 KJAX 021418 AAA
TAFGNV
TAF AMD
KGNV 021418Z 0214/0312 21005KT P6SM VCSH SCT015 BKN050
      TEMPO 0214/0216 BKN015
     FM021600 24008KT P6SM VCTS BKN040CB BKN250
      TEMPO 0217/0220 3SM TSRA OVC025CB
     FM030000 VRB03KT P6SM BKN150 BKN250
     FM030900 VRB03KT 4SM BR SCT010=



000
FTUS42 KJAX 021120
TAFCRG
TAF
KCRG 021120Z 0212/0312 VRB03KT P6SM BKN250
     FM021500 24005KT P6SM VCSH SCT025 BKN040
     FM021800 15007KT P6SM VCTS BKN040CB BKN250
     FM030200 VRB03KT P6SM FEW040 BKN100 BKN250=



000
FTUS42 KJAX 021120
TAFGNV
TAF
KGNV 021120Z 0212/0312 21005KT P6SM VCSH SCT030 BKN050
     FM021600 24006KT P6SM VCTS BKN040CB BKN250
     FM030000 VRB03KT P6SM BKN150 BKN250
     FM030900 VRB03KT 4SM BR SCT010=



000
FTUS42 KJAX 021120
TAFJAX
TAF
KJAX 021120Z 0212/0312 VRB03KT P6SM SCT040 BKN200
     FM021300 24005KT P6SM VCSH SCT025 BKN040
     FM021900 15006KT P6SM VCTS BKN040CB BKN250
     FM030200 VRB03KT P6SM FEW040 BKN100 BKN250=



000
FTUS42 KJAX 021120
TAFCRG
TAF
KCRG 021120Z 0212/0312 VRB03KT P6SM BKN250
     FM021500 24005KT P6SM VCSH SCT025 BKN040
     FM021800 15007KT P6SM VCTS BKN040CB BKN250
     FM030200 VRB03KT P6SM FEW040 BKN100 BKN250=



000
FTUS42 KJAX 021120
TAFSSI
TAF
KSSI 021120Z 0212/0312 VRB03KT P6SM VCSH SCT050 BKN250
     FM021500 16006KT P6SM VCSH SCT040 BKN050
     FM021800 14007KT P6SM VCTS BKN040CB BKN250
     FM030300 VRB04KT P6SM VCSH SCT025 BKN100 BKN250=



000
FTUS42 KJAX 021120
TAFJAX
TAF
KJAX 021120Z 0212/0312 VRB03KT P6SM SCT040 BKN200
     FM021300 24005KT P6SM VCSH SCT025 BKN040
     FM021900 15006KT P6SM VCTS BKN040CB BKN250
     FM030200 VRB03KT P6SM FEW040 BKN100 BKN250=



000
FTUS42 KJAX 021120
TAFSSI
TAF
KSSI 021120Z 0212/0312 VRB03KT P6SM VCSH SCT050 BKN250
     FM021500 16006KT P6SM VCSH SCT040 BKN050
     FM021800 14007KT P6SM VCTS BKN040CB BKN250
     FM030300 VRB04KT P6SM VCSH SCT025 BKN100 BKN250=



000
FTUS42 KJAX 021120
TAFGNV
TAF
KGNV 021120Z 0212/0312 21005KT P6SM VCSH SCT030 BKN050
     FM021600 24006KT P6SM VCTS BKN040CB BKN250
     FM030000 VRB03KT P6SM BKN150 BKN250
     FM030900 VRB03KT 4SM BR SCT010=



000
FTUS42 KJAX 021037 AAA
TAFGNV
TAF AMD
KGNV 021037Z 0211/0306 VRB03KT P6SM SCT020 BKN250
     FM021200 21006KT P6SM VCSH SCT025 BKN040
     FM021600 24006KT P6SM VCTS BKN040CB BKN250
     FM030000 VRB03KT P6SM BKN150 BKN250=



000
FTUS42 KJAX 020815 AAB
TAFJAX
TAF AMD
KJAX 020815Z 0208/0306 VRB03KT P6SM FEW150 BKN250
     FM021500 24005KT P6SM VCSH SCT025 BKN040
     FM021900 15006KT P6SM VCTS BKN040CB BKN250
     FM030200 VRB03KT P6SM FEW040 BKN100 BKN250=



000
FTUS42 KJAX 020639 AAA
TAFJAX
TAF AMD
KJAX 020639Z 0207/0306 VRB03KT P6SM FEW150 BKN250
      TEMPO 0207/0210 4SM BR
     FM021500 24005KT P6SM VCSH SCT025 BKN040
     FM021900 15006KT P6SM VCTS BKN040CB BKN250
     FM030200 VRB03KT P6SM FEW040 BKN100 BKN250=



000
FTUS42 KJAX 020639 AAA
TAFJAX
TAF AMD
KJAX 020639Z 0207/0306 VRB03KT P6SM FEW150 BKN250
      TEMPO 0207/0210 4SM BR
     FM021500 24005KT P6SM VCSH SCT025 BKN040
     FM021900 15006KT P6SM VCTS BKN040CB BKN250
     FM030200 VRB03KT P6SM FEW040 BKN100 BKN250=



000
FTUS42 KJAX 020526
TAFGNV
TAF
KGNV 020526Z 0206/0306 VRB03KT P6SM SCT020 BKN250
      TEMPO 0210/0212 4SM BR
     FM021200 21006KT P6SM VCSH SCT025 BKN040
     FM021600 24006KT P6SM VCTS BKN040CB BKN250
     FM030000 VRB03KT P6SM BKN150 BKN250=



000
FTUS42 KJAX 020526
TAFSSI
TAF
KSSI 020526Z 0206/0306 VRB03KT P6SM SCT015 BKN250
     FM021500 12006KT P6SM VCSH SCT025 BKN050
     FM021800 14009KT P6SM VCTS BKN040CB BKN250
     FM030300 VRB04KT P6SM VCSH SCT025 BKN100 BKN250=



000
FTUS42 KJAX 020526
TAFCRG
TAF
KCRG 020526Z 0206/0306 VRB03KT P6SM BKN250
     FM021500 24005KT P6SM VCSH SCT025 BKN040
     FM021800 15007KT P6SM VCTS BKN040CB BKN250
     FM030200 VRB03KT P6SM FEW040 BKN100 BKN250=



000
FTUS42 KJAX 020526
TAFJAX
TAF
KJAX 020526Z 0206/0306 VRB03KT P6SM FEW150 BKN250
     FM021500 24005KT P6SM VCSH SCT025 BKN040
     FM021900 15006KT P6SM VCTS BKN040CB BKN250
     FM030200 VRB03KT P6SM FEW040 BKN100 BKN250=



000
FTUS42 KJAX 020526
TAFJAX
TAF
KJAX 020526Z 0206/0306 VRB03KT P6SM FEW150 BKN250
     FM021500 24005KT P6SM VCSH SCT025 BKN040
     FM021900 15006KT P6SM VCTS BKN040CB BKN250
     FM030200 VRB03KT P6SM FEW040 BKN100 BKN250=



000
FTUS42 KJAX 020526
TAFCRG
TAF
KCRG 020526Z 0206/0306 VRB03KT P6SM BKN250
     FM021500 24005KT P6SM VCSH SCT025 BKN040
     FM021800 15007KT P6SM VCTS BKN040CB BKN250
     FM030200 VRB03KT P6SM FEW040 BKN100 BKN250=



000
FTUS42 KJAX 020526
TAFSSI
TAF
KSSI 020526Z 0206/0306 VRB03KT P6SM SCT015 BKN250
     FM021500 12006KT P6SM VCSH SCT025 BKN050
     FM021800 14009KT P6SM VCTS BKN040CB BKN250
     FM030300 VRB04KT P6SM VCSH SCT025 BKN100 BKN250=



000
FTUS42 KJAX 020526
TAFGNV
TAF
KGNV 020526Z 0206/0306 VRB03KT P6SM SCT020 BKN250
      TEMPO 0210/0212 4SM BR
     FM021200 21006KT P6SM VCSH SCT025 BKN040
     FM021600 24006KT P6SM VCTS BKN040CB BKN250
     FM030000 VRB03KT P6SM BKN150 BKN250=



000
FTUS42 KJAX 020000 AAA
TAFSSI
TAF AMD
KSSI 020000Z 0200/0224 VRB04KT P6SM SCT015 BKN250
      TEMPO 0200/0202 BKN015
     FM020900 25002KT 4SM BR SCT005 SCT250
     FM021300 27003KT P6SM SCT025 BKN040
     FM021600 11006KT P6SM VCSH SCT025 BKN050
     FM021900 12009KT P6SM VCTS BKN040CB BKN250=



000
FTUS42 KJAX 012327
TAFJAX
TAF
KJAX 012327Z 0200/0224 VRB05KT P6SM VCTS BKN040CB BKN250
      TEMPO 0200/0201 VRB12G24KT 2SM TSRA SCT015 OVC025CB
     FM020300 00000KT P6SM BKN250
     FM021500 24005KT P6SM VCSH SCT025 BKN040
     FM021900 09007KT P6SM VCTS BKN040CB BKN250=



000
FTUS42 KJAX 012327
TAFSSI
TAF
KSSI 012327Z 0200/0224 VRB04KT P6SM SCT040 BKN250
     FM020900 25002KT 4SM BR SCT005 SCT250
     FM021300 27003KT P6SM SCT025 BKN040
     FM021600 11006KT P6SM VCSH SCT025 BKN050
     FM021900 12009KT P6SM VCTS BKN040CB BKN250=



000
FTUS42 KJAX 012327
TAFGNV
TAF
KGNV 012327Z 0200/0224 VRB03KT P6SM SCT020 BKN250
     FM020900 00000KT 2SM BR SCT005 SCT250
     FM021300 21006KT P6SM VCSH SCT025 BKN040
     FM021800 24006KT P6SM VCTS BKN040CB BKN250=



000
FTUS42 KJAX 012327
TAFCRG
TAF
KCRG 012327Z 0200/0224 VRB05KT P6SM VCTS BKN040CB BKN250
      TEMPO 0200/0201 VRB10G20KT 4SM TSRA SCT020 OVC035CB
     FM020300 00000KT P6SM BKN250
     FM021500 24005KT P6SM VCSH SCT025 BKN040
     FM021800 09007KT P6SM VCTS BKN040CB BKN250=



000
FTUS42 KJAX 012311 AAC
TAFJAX
TAF AMD
KJAX 012311Z 0123/0218 VRB05KT P6SM VCTS BKN040CB BKN250
      TEMPO 0123/0201 VRB10G22KT 3SM TSRA OVC035CB
     FM020300 00000KT P6SM BKN250
     FM021500 24005KT P6SM VCSH SCT025 BKN040=



000
FTUS42 KJAX 012246 AAB
TAFCRG
TAF AMD
KCRG 012246Z 0123/0218 VRB05KT P6SM VCTS BKN040CB BKN250
      TEMPO 0123/0124 VRB12G22KT 3SM TSRA OVC035CB
     FM020300 00000KT P6SM BKN250
     FM021500 24005KT P6SM VCSH SCT025 BKN040=



000
FTUS42 KJAX 012104 AAC
TAFJAX
TAF AMD
KJAX 012104Z 0121/0218 VRB05KT P6SM VCTS BKN035CB
     FM020000 14005KT P6SM VCSH BKN040
     FM020300 VRB03KT P6SM SCT040 BKN100
     FM021500 24006KT P6SM VCSH SCT025 BKN040=



000
FTUS42 KJAX 012053 AAB
TAFGNV
TAF AMD
KGNV 012053Z 0121/0218 VRB04KT P6SM VCTS SCT020 BKN035CB
     FM020000 VRB03KT P6SM SCT040 BKN100
     FM020900 00000KT P6SM SCT010 SCT200
     FM021500 22006KT P6SM VCSH SCT025 BKN040=



000
FTUS42 KJAX 011906 AAB
TAFJAX
TAF AMD
KJAX 011906Z 0119/0218 VRB05KT P6SM VCTS BKN035CB
      TEMPO 0120/0123 VRB15G25KT 3SM TSRA BR BKN020CB
     FM020000 14005KT P6SM VCSH BKN040
     FM020300 VRB03KT P6SM SCT040 BKN100
     FM021500 24006KT P6SM VCSH SCT025 BKN040=



000
FTUS42 KJAX 011906 AAA
TAFCRG
TAF AMD
KCRG 011906Z 0119/0218 VRB06KT P6SM VCTS BKN035CB
      TEMPO 0120/0123 VRB15G25KT 3SM TSRA BR BKN020CB
     FM020000 14005KT P6SM VCSH BKN040
     FM020300 VRB03KT P6SM SCT040 BKN100
     FM021500 24006KT P6SM VCSH SCT025 BKN040=



000
FTUS42 KJAX 011906 AAB
TAFJAX
TAF AMD
KJAX 011906Z 0119/0218 VRB05KT P6SM VCTS BKN035CB
      TEMPO 0120/0123 VRB15G25KT 3SM TSRA BR BKN020CB
     FM020000 14005KT P6SM VCSH BKN040
     FM020300 VRB03KT P6SM SCT040 BKN100
     FM021500 24006KT P6SM VCSH SCT025 BKN040=



000
FTUS42 KJAX 011906 AAA
TAFCRG
TAF AMD
KCRG 011906Z 0119/0218 VRB06KT P6SM VCTS BKN035CB
      TEMPO 0120/0123 VRB15G25KT 3SM TSRA BR BKN020CB
     FM020000 14005KT P6SM VCSH BKN040
     FM020300 VRB03KT P6SM SCT040 BKN100
     FM021500 24006KT P6SM VCSH SCT025 BKN040=



000
FTUS42 KJAX 011905 AAA
TAFGNV
TAF AMD
KGNV 011905Z 0119/0218 VRB04KT P6SM VCTS SCT020 BKN035CB
      TEMPO 0119/0122 VRB10G22KT 3SM TSRA OVC020CB
     FM012200 20008KT P6SM VCTS BKN035CB
     FM020000 VRB03KT P6SM SCT040 BKN100
     FM020900 00000KT P6SM SCT010 SCT200
     FM021500 22006KT P6SM VCSH SCT025 BKN040=



000
FTUS42 KJAX 011905 AAA
TAFGNV
TAF AMD
KGNV 011905Z 0119/0218 VRB04KT P6SM VCTS SCT020 BKN035CB
      TEMPO 0119/0122 VRB10G22KT 3SM TSRA OVC020CB
     FM012200 20008KT P6SM VCTS BKN035CB
     FM020000 VRB03KT P6SM SCT040 BKN100
     FM020900 00000KT P6SM SCT010 SCT200
     FM021500 22006KT P6SM VCSH SCT025 BKN040=



000
FTUS42 KJAX 011844 AAC
TAFSSI
TAF AMD
KSSI 011844Z 0119/0218 11005KT P6SM VCTS SCT020CB BKN040
      TEMPO 0118/0120 5SM -SHRA BR
     FM012200 13008KT P6SM VCSH SCT025 BKN040
     FM020100 VRB04KT P6SM SCT040 BKN150
     FM021500 10006KT P6SM VCSH SCT025 BKN050=



000
FTUS42 KJAX 011816 AAB
TAFSSI
TAF AMD
KSSI 011816Z 0118/0218 11005KT P6SM VCTS SCT020CB BKN040
      TEMPO 0118/0119 2SM TSRA BR
     FM012200 13008KT P6SM VCSH SCT025 BKN040
     FM020100 VRB04KT P6SM SCT040 BKN150
     FM021500 10006KT P6SM VCSH SCT025 BKN050=



000
FTUS42 KJAX 011742 AAA
TAFSSI
TAF AMD
KSSI 011742Z 0118/0218 11005KT P6SM VCTS SCT020CB BKN040
      TEMPO 0118/0119 1/2SM +TSRA FG BKN020CB
     FM012200 13008KT P6SM VCSH SCT025 BKN040
     FM020100 VRB04KT P6SM SCT040 BKN150
     FM021500 10006KT P6SM VCSH SCT025 BKN050=



000
FTUS42 KJAX 011721
TAFGNV
TAF
KGNV 011721Z 0118/0218 21005KT P6SM SCT020 BKN035
     FM012000 20008KT P6SM VCTS BKN035CB
     FM020000 VRB03KT P6SM SCT040 BKN100
     FM020900 00000KT P6SM SCT010 SCT200
     FM021500 22006KT P6SM VCSH SCT025 BKN040=



000
FTUS42 KJAX 011721
TAFJAX
TAF
KJAX 011721Z 0118/0218 VRB04KT P6SM VCSH SCT025 BKN040
     FM012000 12008KT P6SM VCTS BKN035CB
      TEMPO 0120/0123 VRB15G25KT 3SM TSRA BR BKN020CB
     FM020000 14005KT P6SM VCSH BKN040
     FM020300 VRB03KT P6SM SCT040 BKN100
     FM021500 24006KT P6SM VCSH SCT025 BKN040=



000
FTUS42 KJAX 011721
TAFSSI
TAF
KSSI 011721Z 0118/0218 11005KT P6SM VCTS SCT015CB BKN040
      TEMPO 0118/0119 2SM TSRA BR BKN015CB
     FM012200 13008KT P6SM VCSH SCT025 BKN040
     FM020100 VRB04KT P6SM SCT040 BKN150
     FM021500 10006KT P6SM VCSH SCT025 BKN050=



000
FTUS42 KJAX 011721
TAFCRG
TAF
KCRG 011721Z 0118/0218 VRB04KT P6SM VCSH SCT025 BKN040
     FM012000 12008KT P6SM VCTS BKN035CB
      TEMPO 0120/0123 VRB15G25KT 3SM TSRA BR BKN020CB
     FM020000 14005KT P6SM VCSH BKN040
     FM020300 VRB03KT P6SM SCT040 BKN100
     FM021500 24006KT P6SM VCSH SCT025 BKN040=



000
FTUS42 KJAX 011721
TAFGNV
TAF
KGNV 011721Z 0118/0218 21005KT P6SM SCT020 BKN035
     FM012000 20008KT P6SM VCTS BKN035CB
     FM020000 VRB03KT P6SM SCT040 BKN100
     FM020900 00000KT P6SM SCT010 SCT200
     FM021500 22006KT P6SM VCSH SCT025 BKN040=



000
FTUS42 KJAX 011721
TAFSSI
TAF
KSSI 011721Z 0118/0218 11005KT P6SM VCTS SCT015CB BKN040
      TEMPO 0118/0119 2SM TSRA BR BKN015CB
     FM012200 13008KT P6SM VCSH SCT025 BKN040
     FM020100 VRB04KT P6SM SCT040 BKN150
     FM021500 10006KT P6SM VCSH SCT025 BKN050=



000
FTUS42 KJAX 011721
TAFCRG
TAF
KCRG 011721Z 0118/0218 VRB04KT P6SM VCSH SCT025 BKN040
     FM012000 12008KT P6SM VCTS BKN035CB
      TEMPO 0120/0123 VRB15G25KT 3SM TSRA BR BKN020CB
     FM020000 14005KT P6SM VCSH BKN040
     FM020300 VRB03KT P6SM SCT040 BKN100
     FM021500 24006KT P6SM VCSH SCT025 BKN040=



000
FTUS42 KJAX 011721
TAFJAX
TAF
KJAX 011721Z 0118/0218 VRB04KT P6SM VCSH SCT025 BKN040
     FM012000 12008KT P6SM VCTS BKN035CB
      TEMPO 0120/0123 VRB15G25KT 3SM TSRA BR BKN020CB
     FM020000 14005KT P6SM VCSH BKN040
     FM020300 VRB03KT P6SM SCT040 BKN100
     FM021500 24006KT P6SM VCSH SCT025 BKN040=



000
FTUS42 KJAX 011633 AAG
TAFSSI
TAF AMD
KSSI 011633Z 0117/0212 11005KT P6SM VCTS SCT015CB BKN040
      TEMPO 0117/0119 2SM TSRA BR BKN015CB
     FM012000 15008KT P6SM VCTS SCT035CB BKN040
     FM020000 21004KT P6SM SCT040 BKN150=



000
FTUS42 KJAX 011632 AAF
TAFGNV
TAF AMD
KGNV 011632Z 0117/0212 VRB03KT P6SM SCT020 BKN035
     FM011800 21007KT P6SM VCTS SCT020 BKN035CB BKN120
     FM020000 VRB03KT P6SM SCT040 BKN150=



000
FTUS42 KJAX 011631 AAE
TAFCRG
TAF AMD
KCRG 011631Z 0117/0212 VRB04KT P6SM SCT025 BKN040
     FM011800 13009KT P6SM VCTS SCT020 BKN035CB BKN120
      TEMPO 0120/0123 VRB15G25KT 3SM +TSRA BR SCT015 OVC025CB
     FM020200 16003KT P6SM SCT040 BKN150=



000
FTUS42 KJAX 011631 AAG
TAFJAX
TAF AMD
KJAX 011631Z 0117/0212 06005KT P6SM VCSH SCT025 BKN040
     FM011800 13008KT P6SM VCTS SCT020 BKN035CB BKN120
      TEMPO 0120/0123 VRB15G25KT 3SM +TSRA BR SCT015 OVC025CB
     FM020100 16003KT P6SM SCT040 BKN150=



000
FTUS42 KJAX 011523 AAF
TAFSSI
TAF AMD
KSSI 011523Z 0115/0212 11005KT P6SM VCSH SCT015 BKN035
      TEMPO 0115/0116 1/2SM +TSRA FG BKN015CB
     FM012000 15008KT P6SM VCTS SCT035CB BKN040
     FM020000 21004KT P6SM SCT040 BKN150=



000
FTUS42 KJAX 011521 AAC
TAFJAX
TAF AMD
KJAX 011521Z 0115/0212 06005KT P6SM VCSH SCT015 BKN070 OVC250
      TEMPO 0115/0117 BKN015
     FM011800 13008KT P6SM VCTS SCT020 BKN035CB BKN120
      TEMPO 0120/0123 VRB15G25KT 3SM +TSRA BR SCT015 OVC025CB
     FM020100 16003KT P6SM SCT040 BKN150=



000
FTUS42 KJAX 011521 AAE
TAFSSI
TAF AMD
KSSI 011521Z 0115/0212 11005KT P6SM VCSH SCT015 BKN035
      TEMPO 0115/0117 1SM TSRA BR BKN015CB
     FM012000 15008KT P6SM VCTS SCT035CB BKN040
     FM020000 21004KT P6SM SCT040 BKN150=



000
FTUS42 KJAX 011509 AAD
TAFSSI
TAF AMD
KSSI 011509Z 0115/0212 11005KT P6SM VCSH SCT015 BKN035
      TEMPO 0115/0117 1SM RA BR BKN015
     FM012000 15008KT P6SM VCTS SCT035CB BKN040
     FM020000 21004KT P6SM SCT040 BKN150=



000
FTUS42 KJAX 011509 AAD
TAFSSI
TAF AMD
KSSI 011509Z 0115/0212 11005KT P6SM VCSH SCT015 BKN035
      TEMPO 0115/0117 1SM RA BR BKN015
     FM012000 15008KT P6SM VCTS SCT035CB BKN040
     FM020000 21004KT P6SM SCT040 BKN150=



000
FTUS42 KJAX 011508 AAE
TAFGNV
TAF AMD
KGNV 011508Z 0115/0212 VRB03KT P6SM SCT015 BKN070 OVC250
      TEMPO 0115/0116 OVC015
     FM011700 21007KT P6SM VCTS SCT020 BKN035CB BKN120
     FM020000 VRB03KT P6SM SCT040 BKN150=



000
FTUS42 KJAX 011507 AAD
TAFCRG
TAF AMD
KCRG 011507Z 0115/0212 VRB04KT P6SM SCT025 OVC250
      TEMPO 0115/0118 BKN025
     FM011800 13009KT P6SM VCTS SCT020 BKN035CB BKN120
      TEMPO 0120/0123 VRB15G25KT 3SM +TSRA BR SCT015 OVC025CB
     FM020200 16003KT P6SM SCT040 BKN150=



000
FTUS42 KJAX 011507 AAB
TAFJAX
TAF AMD
KJAX 011507Z 0115/0212 06005KT P6SM SCT015 BKN070 OVC250
      TEMPO 0115/0117 BKN015
     FM011800 13008KT P6SM VCTS SCT020 BKN035CB BKN120
      TEMPO 0120/0123 VRB15G25KT 3SM +TSRA BR SCT015 OVC025CB
     FM020100 16003KT P6SM SCT040 BKN150=



000
FTUS42 KJAX 011507 AAB
TAFJAX
TAF AMD
KJAX 011507Z 0115/0212 06005KT P6SM SCT015 BKN070 OVC250
      TEMPO 0115/0117 BKN015
     FM011800 13008KT P6SM VCTS SCT020 BKN035CB BKN120
      TEMPO 0120/0123 VRB15G25KT 3SM +TSRA BR SCT015 OVC025CB
     FM020100 16003KT P6SM SCT040 BKN150=



000
FTUS42 KJAX 011419 AAC
TAFCRG
TAF AMD
KCRG 011419Z 0114/0212 VRB04KT P6SM SCT025 OVC250
      TEMPO 0114/0116 BKN025
     FM011800 13009KT P6SM VCTS SCT020 BKN035CB BKN120
      TEMPO 0120/0123 VRB15G25KT 3SM +TSRA BR SCT015 OVC025CB
     FM020200 16003KT P6SM SCT040 BKN150=



000
FTUS42 KJAX 011409 AAC
TAFSSI
TAF AMD
KSSI 011409Z 0114/0212 11005KT P6SM VCSH BKN035
     FM012000 15008KT P6SM VCTS SCT035CB BKN040
     FM020000 21004KT P6SM SCT040 BKN150=



000
FTUS42 KJAX 011409 AAC
TAFSSI
TAF AMD
KSSI 011409Z 0114/0212 11005KT P6SM VCSH BKN035
     FM012000 15008KT P6SM VCTS SCT035CB BKN040
     FM020000 21004KT P6SM SCT040 BKN150=



000
FTUS42 KJAX 011408 AAD
TAFGNV
TAF AMD
KGNV 011408Z 0114/0212 VRB03KT P6SM SCT007 BKN070 OVC250
      TEMPO 0114/0116 OVC007
     FM011700 21007KT P6SM VCTS SCT020 BKN035CB BKN120
     FM020000 VRB03KT P6SM SCT040 BKN150=



000
FTUS42 KJAX 011408 AAD
TAFGNV
TAF AMD
KGNV 011408Z 0114/0212 VRB03KT P6SM SCT007 BKN070 OVC250
      TEMPO 0114/0116 OVC007
     FM011700 21007KT P6SM VCTS SCT020 BKN035CB BKN120
     FM020000 VRB03KT P6SM SCT040 BKN150=



000
FTUS42 KJAX 011318 AAC
TAFGNV
TAF AMD
KGNV 011318Z 0113/0212 VRB03KT P6SM SCT005 BKN070 OVC250
      TEMPO 0113/0114 OVC005
     FM011700 21007KT P6SM VCTS SCT020 BKN035CB BKN120
     FM020000 VRB03KT P6SM SCT040 BKN150=



000
FTUS42 KJAX 011313 AAB
TAFSSI
TAF AMD
KSSI 011313Z 0113/0212 11005KT P6SM SCT030 BKN070 OVC120
     FM012000 15008KT P6SM VCTS SCT035CB BKN040
     FM020000 21004KT P6SM SCT040 BKN150=



000
FTUS42 KJAX 011312 AAB
TAFCRG
TAF AMD
KCRG 011312Z 0113/0212 VRB04KT P6SM SCT025 OVC250
     FM011800 13009KT P6SM VCTS SCT020 BKN035CB BKN120
      TEMPO 0120/0123 VRB15G25KT 3SM +TSRA BR SCT015 OVC025CB
     FM020200 16003KT P6SM SCT040 BKN150=



000
FTUS42 KJAX 011312 AAB
TAFGNV
TAF AMD
KGNV 011312Z 0113/0212 VRB03KT P6SM SCT002 BKN070 OVC250
      TEMPO 0113/0114 OVC001
     FM011700 21007KT P6SM VCTS SCT020 BKN035CB BKN120
     FM020000 VRB03KT P6SM SCT040 BKN150=



000
FTUS42 KJAX 011123 AAA
TAFSSI
TAF AMD
KSSI 011123Z 0111/0212 11007KT P6SM VCTS SCT020CB BKN070 OVC120
      TEMPO 0112/0114 BKN020CB
     FM012000 15008KT P6SM VCTS SCT035CB BKN040
     FM020000 21004KT P6SM SCT040 BKN150=



000
FTUS42 KJAX 011123 AAA
TAFSSI
TAF AMD
KSSI 011123Z 0111/0212 11007KT P6SM VCTS SCT020CB BKN070 OVC120
      TEMPO 0112/0114 BKN020CB
     FM012000 15008KT P6SM VCTS SCT035CB BKN040
     FM020000 21004KT P6SM SCT040 BKN150=



000
FTUS42 KJAX 011122 AAA
TAFCRG
TAF AMD
KCRG 011122Z 0111/0212 06006KT P6SM SCT025 BKN070 OVC250
      TEMPO 0112/0114 BKN025
     FM011800 13009KT P6SM VCTS SCT020 BKN035CB BKN120
      TEMPO 0120/0123 VRB15G25KT 3SM +TSRA BR SCT015 OVC025CB
     FM020200 16003KT P6SM SCT040 BKN150=



000
FTUS42 KJAX 011122 AAA
TAFGNV
TAF AMD
KGNV 011122Z 0111/0212 00000KT 2SM BR SCT002 OVC012
      TEMPO 0112/0113 1/4SM FG OVC002
     FM011300 VRB03KT P6SM SCT012 BKN070 OVC250
      TEMPO 0113/0114 3SM BR BKN012
     FM011700 21007KT P6SM VCTS SCT020 BKN035CB BKN120
     FM020000 VRB03KT P6SM SCT040 BKN150=



000
FTUS42 KJAX 011122 AAA
TAFGNV
TAF AMD
KGNV 011122Z 0111/0212 00000KT 2SM BR SCT002 OVC012
      TEMPO 0112/0113 1/4SM FG OVC002
     FM011300 VRB03KT P6SM SCT012 BKN070 OVC250
      TEMPO 0113/0114 3SM BR BKN012
     FM011700 21007KT P6SM VCTS SCT020 BKN035CB BKN120
     FM020000 VRB03KT P6SM SCT040 BKN150=



000
FTUS42 KJAX 011122 AAA
TAFCRG
TAF AMD
KCRG 011122Z 0111/0212 06006KT P6SM SCT025 BKN070 OVC250
      TEMPO 0112/0114 BKN025
     FM011800 13009KT P6SM VCTS SCT020 BKN035CB BKN120
      TEMPO 0120/0123 VRB15G25KT 3SM +TSRA BR SCT015 OVC025CB
     FM020200 16003KT P6SM SCT040 BKN150=



000
FTUS42 KJAX 011120
TAFJAX
TAF
KJAX 011120Z 0112/0212 06005KT P6SM SCT025 BKN070 OVC250
     FM011800 13008KT P6SM VCTS SCT020 BKN035CB BKN120
      TEMPO 0120/0123 VRB15G25KT 3SM +TSRA BR SCT015 OVC025CB
     FM020100 16003KT P6SM SCT040 BKN150=



000
FTUS42 KJAX 011120
TAFSSI
TAF
KSSI 011120Z 0112/0212 11007KT P6SM VCTS SCT020CB BKN070 OVC120
      TEMPO 0112/0114 2SM +TSRA BR OVC015CB
     FM012000 15008KT P6SM VCTS SCT035CB BKN040
     FM020000 21004KT P6SM SCT040 BKN150=



000
FTUS42 KJAX 011120
TAFSSI
TAF
KSSI 011120Z 0112/0212 11007KT P6SM VCTS SCT020CB BKN070 OVC120
      TEMPO 0112/0114 2SM +TSRA BR OVC015CB
     FM012000 15008KT P6SM VCTS SCT035CB BKN040
     FM020000 21004KT P6SM SCT040 BKN150=



000
FTUS42 KJAX 011120
TAFGNV
TAF
KGNV 011120Z 0112/0212 VRB05KT P6SM SCT025 BKN070 OVC250
      TEMPO 0112/0114 OVC003
     FM011700 21007KT P6SM VCTS SCT020 BKN035CB BKN120
     FM020000 VRB03KT P6SM SCT040 BKN150=



000
FTUS42 KJAX 011120
TAFJAX
TAF
KJAX 011120Z 0112/0212 06005KT P6SM SCT025 BKN070 OVC250
     FM011800 13008KT P6SM VCTS SCT020 BKN035CB BKN120
      TEMPO 0120/0123 VRB15G25KT 3SM +TSRA BR SCT015 OVC025CB
     FM020100 16003KT P6SM SCT040 BKN150=



000
FTUS42 KJAX 011120
TAFCRG
TAF
KCRG 011120Z 0112/0212 06006KT P6SM SCT025 BKN070 OVC250
     FM011800 13009KT P6SM VCTS SCT020 BKN035CB BKN120
      TEMPO 0120/0123 VRB15G25KT 3SM +TSRA BR SCT015 OVC025CB
     FM020200 16003KT P6SM SCT040 BKN150=



000
FTUS42 KJAX 011120
TAFGNV
TAF
KGNV 011120Z 0112/0212 VRB05KT P6SM SCT025 BKN070 OVC250
      TEMPO 0112/0114 OVC003
     FM011700 21007KT P6SM VCTS SCT020 BKN035CB BKN120
     FM020000 VRB03KT P6SM SCT040 BKN150=



000
FTUS42 KJAX 011120
TAFCRG
TAF
KCRG 011120Z 0112/0212 06006KT P6SM SCT025 BKN070 OVC250
     FM011800 13009KT P6SM VCTS SCT020 BKN035CB BKN120
      TEMPO 0120/0123 VRB15G25KT 3SM +TSRA BR SCT015 OVC025CB
     FM020200 16003KT P6SM SCT040 BKN150=



000
FTUS42 KJAX 011051 CCA
TAFSSI
TAF COR
KSSI 011051Z 0106/0206 11007KT P6SM VCTS SCT020CB BKN070 OVC120
      TEMPO 0110/0112 2SM +TSRA BR OVC015CB
     FM012000 15008KT P6SM VCTS SCT035CB BKN040
     FM020000 21004KT P6SM SCT040 BKN150=



000
FTUS42 KJAX 011051 CCA
TAFSSI
TAF COR
KSSI 011051Z 0106/0206 11007KT P6SM VCTS SCT020CB BKN070 OVC120
      TEMPO 0110/0112 2SM +TSRA BR OVC015CB
     FM012000 15008KT P6SM VCTS SCT035CB BKN040
     FM020000 21004KT P6SM SCT040 BKN150=



000
FTUS42 KJAX 011050 CCB
TAFGNV
TAF COR
KGNV 011050Z 0106/0206 VRB05KT P6SM SCT025 BKN070 OVC250
      TEMPO 0110/0112 OVC003
     FM011700 21007KT P6SM VCTS SCT020 BKN035CB BKN120
     FM020000 VRB03KT P6SM SCT040 BKN150=



000
FTUS42 KJAX 011050 CCB
TAFGNV
TAF COR
KGNV 011050Z 0106/0206 VRB05KT P6SM SCT025 BKN070 OVC250
      TEMPO 0110/0112 OVC003
     FM011700 21007KT P6SM VCTS SCT020 BKN035CB BKN120
     FM020000 VRB03KT P6SM SCT040 BKN150=



000
FTUS42 KJAX 011049 CCA
TAFGNV
TAF COR
KGNV 011049Z 0106/0206 VRB05KT P6SM SCT025 BKN070 OVC250
      TEMPO 0112/0114 OVC003
     FM011700 21007KT P6SM VCTS SCT020 BKN035CB BKN120
     FM020000 VRB03KT P6SM SCT040 BKN150=



000
FTUS42 KJAX 011049 CCA
TAFGNV
TAF COR
KGNV 011049Z 0106/0206 VRB05KT P6SM SCT025 BKN070 OVC250
      TEMPO 0112/0114 OVC003
     FM011700 21007KT P6SM VCTS SCT020 BKN035CB BKN120
     FM020000 VRB03KT P6SM SCT040 BKN150=



000
FTUS42 KJAX 010620 AAA
TAFSSI
TAF AMD
KSSI 010620Z 0106/0206 03004KT P6SM VCTS SCT020CB BKN250
      TEMPO 0107/0110 1SM +SHRA BR BKN020
     FM011600 15007KT P6SM SCT025 BKN070 OVC250=



000
FTUS42 KJAX 010620 AAA
TAFSSI
TAF AMD
KSSI 010620Z 0106/0206 03004KT P6SM VCTS SCT020CB BKN250
      TEMPO 0107/0110 1SM +SHRA BR BKN020
     FM011600 15007KT P6SM SCT025 BKN070 OVC250=



000
FTUS42 KJAX 010551
TAFSSI
TAF
KSSI 010551Z 0106/0206 03004KT P6SM VCSH SCT020 BKN250
     FM011600 15007KT P6SM SCT025 BKN070 OVC250=



000
FTUS42 KJAX 010551
TAFCRG
TAF
KCRG 010551Z 0106/0206 00000KT P6SM SCT120 BKN250
     FM011300 20006KT P6SM SCT025 BKN070 OVC250
     FM011800 13009KT P6SM VCTS SCT020 BKN035CB BKN120 PROB30
      0122/0202 VRB15G25KT 3SM +TSRA BR SCT015 BKN025CB OVC070
     FM020200 16003KT P6SM SCT040 BKN150=



000
FTUS42 KJAX 010551
TAFJAX
TAF
KJAX 010551Z 0106/0206 00000KT P6SM BKN120 BKN250
     FM011300 20005KT P6SM SCT025 BKN070 OVC250
     FM011800 13008KT P6SM VCTS SCT020 BKN035CB BKN120 PROB30
      0121/0201 VRB15G25KT 3SM +TSRA BR SCT015 BKN025CB OVC070
     FM020100 16003KT P6SM SCT040 BKN150=



000
FTUS42 KJAX 010551
TAFGNV
TAF
KGNV 010551Z 0106/0206 00000KT P6SM FEW025 BKN120 BKN250
     FM011100 09005KT P6SM SCT025 BKN070 OVC250
     FM011600 13008KT P6SM VCTS SCT020 BKN035CB BKN120 PROB30
      0118/0122 VRB15G25KT 3SM +TSRA BR SCT015 BKN025CB OVC070
     FM020000 VRB03KT P6SM SCT040 BKN150=



000
FTUS42 KJAX 010551
TAFSSI
TAF
KSSI 010551Z 0106/0206 03004KT P6SM VCSH SCT020 BKN250
     FM011600 15007KT P6SM SCT025 BKN070 OVC250=



000
FTUS42 KJAX 010551
TAFJAX
TAF
KJAX 010551Z 0106/0206 00000KT P6SM BKN120 BKN250
     FM011300 20005KT P6SM SCT025 BKN070 OVC250
     FM011800 13008KT P6SM VCTS SCT020 BKN035CB BKN120 PROB30
      0121/0201 VRB15G25KT 3SM +TSRA BR SCT015 BKN025CB OVC070
     FM020100 16003KT P6SM SCT040 BKN150=



000
FTUS42 KJAX 010551
TAFGNV
TAF
KGNV 010551Z 0106/0206 00000KT P6SM FEW025 BKN120 BKN250
     FM011100 09005KT P6SM SCT025 BKN070 OVC250
     FM011600 13008KT P6SM VCTS SCT020 BKN035CB BKN120 PROB30
      0118/0122 VRB15G25KT 3SM +TSRA BR SCT015 BKN025CB OVC070
     FM020000 VRB03KT P6SM SCT040 BKN150=



000
FTUS42 KJAX 010551
TAFCRG
TAF
KCRG 010551Z 0106/0206 00000KT P6SM SCT120 BKN250
     FM011300 20006KT P6SM SCT025 BKN070 OVC250
     FM011800 13009KT P6SM VCTS SCT020 BKN035CB BKN120 PROB30
      0122/0202 VRB15G25KT 3SM +TSRA BR SCT015 BKN025CB OVC070
     FM020200 16003KT P6SM SCT040 BKN150=



000
FTUS42 KJAX 010238 AAD
TAFGNV
TAF AMD
KGNV 010238Z 0103/0124 VRB03KT 5SM -SHRA BR SCT010 BKN025 BKN070
     FM010330 00000KT P6SM FEW025 BKN120 BKN250
     FM011100 09005KT P6SM VCSH SCT025 BKN070 OVC250
     FM011400 13008KT P6SM VCTS SCT020 BKN030CB BKN120 PROB30
      0114/0118 VRB15G25KT 3SM +TSRA BR SCT015 BKN025CB OVC070=



000
FTUS42 KJAX 010238 AAD
TAFGNV
TAF AMD
KGNV 010238Z 0103/0124 VRB03KT 5SM -SHRA BR SCT010 BKN025 BKN070
     FM010330 00000KT P6SM FEW025 BKN120 BKN250
     FM011100 09005KT P6SM VCSH SCT025 BKN070 OVC250
     FM011400 13008KT P6SM VCTS SCT020 BKN030CB BKN120 PROB30
      0114/0118 VRB15G25KT 3SM +TSRA BR SCT015 BKN025CB OVC070=



000
FTUS42 KJAX 010205 AAC
TAFGNV
TAF AMD
KGNV 010205Z 0102/0124 VRB03KT 2SM +SHRA BR SCT025 BKN070 OVC120
     FM010400 00000KT P6SM VCSH BKN120 BKN250
     FM011100 09005KT P6SM VCSH SCT025 BKN070 OVC250
     FM011400 13008KT P6SM VCTS SCT020 BKN030CB BKN120 PROB30
      0114/0118 VRB15G25KT 3SM +TSRA BR SCT015 BKN025CB OVC070=



000
FTUS42 KJAX 010134 AAB
TAFGNV
TAF AMD
KGNV 010134Z 0102/0124 VRB03KT 5SM SHRA BR SCT030 BKN070 OVC120
     FM010400 00000KT P6SM VCSH BKN120 BKN250
     FM011100 09005KT P6SM VCSH SCT025 BKN070 OVC250
     FM011400 13008KT P6SM VCTS SCT020 BKN030CB BKN120 PROB30
      0114/0118 VRB15G25KT 3SM +TSRA BR SCT015 BKN025CB OVC070=



000
FTUS42 KJAX 010025 AAA
TAFGNV
TAF AMD
KGNV 010025Z 0100/0124 VRB03KT 6SM -SHRA FEW030 BKN070 BKN120
     FM010200 00000KT P6SM VCSH BKN120 BKN250
     FM011100 09005KT P6SM VCSH SCT025 BKN070 OVC250
     FM011400 13008KT P6SM VCTS SCT020 BKN030CB BKN120 PROB30
      0114/0118 VRB15G25KT 3SM +TSRA BR SCT015 BKN025CB OVC070=



000
FTUS42 KJAX 312346
TAFJAX
TAF
KJAX 312346Z 0100/0124 VRB05KT P6SM VCSH SCT025 BKN070 OVC120
     FM010200 00000KT P6SM BKN120 BKN250
     FM011300 20005KT P6SM VCSH SCT025 BKN070 OVC250
     FM011600 13008KT P6SM VCTS SCT020 BKN030CB BKN120 PROB30
      0116/0120 VRB15G25KT 3SM +TSRA BR SCT015 BKN025CB OVC070=



000
FTUS42 KJAX 312346
TAFSSI
TAF
KSSI 312346Z 0100/0124 11007KT P6SM SCT020 BKN120 BKN250
     FM010200 17004KT P6SM BKN120 BKN250
     FM011300 04007KT P6SM VCSH SCT025 BKN070 OVC250
     FM011700 09010KT P6SM VCTS SCT020 BKN030CB BKN120 PROB30
      0117/0121 VRB15G25KT 3SM +TSRA BR SCT015 BKN025CB OVC070=



000
FTUS42 KJAX 312346
TAFGNV
TAF
KGNV 312346Z 0100/0124 VRB03KT P6SM VCTS SCT030CB BKN070 BKN120
     FM010100 00000KT P6SM VCSH BKN120 BKN250
     FM011100 09005KT P6SM VCSH SCT025 BKN070 OVC250
     FM011400 13008KT P6SM VCTS SCT020 BKN030CB BKN120 PROB30
      0114/0118 VRB15G25KT 3SM +TSRA BR SCT015 BKN025CB OVC070=



000
FTUS42 KJAX 312346
TAFCRG
TAF
KCRG 312346Z 0100/0124 12005KT P6SM FEW025 SCT070 BKN120
     FM010300 00000KT P6SM SCT120 BKN250
     FM011300 20006KT P6SM VCSH SCT025 BKN070 OVC250
     FM011600 13009KT P6SM VCTS SCT020 BKN030CB BKN120 PROB30
      0116/0120 VRB15G25KT 3SM +TSRA BR SCT015 BKN025CB OVC070=



000
FTUS42 KJAX 312151 AAC
TAFJAX
TAF AMD
KJAX 312151Z 3122/0118 12010G20KT 5SM SHRA BR VCTS SCT020 BKN030CB
      BKN080
     FM312300 VRB05KT P6SM VCSH SCT025 BKN050 BKN120
     FM010100 15003KT P6SM SCT120 BKN250
     FM011500 22006KT P6SM VCSH SCT025 BKN050=



000
FTUS42 KJAX 312055 AAE
TAFJAX
TAF AMD
KJAX 312055Z 3121/0118 12010G20KT 2SM +TSRA BR SCT020 BKN030CB
      BKN080
     FM312300 VRB05KT P6SM VCTS SCT020 BKN035CB BKN120
     FM010100 15003KT P6SM SCT120 BKN250
     FM011500 22006KT P6SM VCSH SCT025 BKN050=



000
FTUS42 KJAX 311947 AAD
TAFCRG
TAF AMD
KCRG 311947Z 3120/0118 12005KT P6SM VCTS SCT015 BKN025CB OVC090
     FM312100 VRB05KT P6SM VCTS SCT020 BKN030CB BKN120
     FM010100 18004KT P6SM SCT040 BKN200
     FM011500 22006KT P6SM VCSH SCT025 BKN050=



000
FTUS42 KJAX 311947 AAD
TAFCRG
TAF AMD
KCRG 311947Z 3120/0118 12005KT P6SM VCTS SCT015 BKN025CB OVC090
     FM312100 VRB05KT P6SM VCTS SCT020 BKN030CB BKN120
     FM010100 18004KT P6SM SCT040 BKN200
     FM011500 22006KT P6SM VCSH SCT025 BKN050=



000
FTUS42 KJAX 311929 AAD
TAFJAX
TAF AMD
KJAX 311929Z 3119/0118 VRB05KT P6SM VCTS SCT025 BKN035CB BKN250
     FM010100 15003KT P6SM SCT120 BKN250
     FM011500 22006KT P6SM VCSH SCT025 BKN050=



000
FTUS42 KJAX 311929 AAD
TAFJAX
TAF AMD
KJAX 311929Z 3119/0118 VRB05KT P6SM VCTS SCT025 BKN035CB BKN250
     FM010100 15003KT P6SM SCT120 BKN250
     FM011500 22006KT P6SM VCSH SCT025 BKN050=



000
FTUS42 KJAX 311921 AAC
TAFCRG
TAF AMD
KCRG 311921Z 3119/0118 VRB15G25KT 3SM +TSRA BR SCT015 BKN025CB
      OVC090
     FM312100 VRB05KT P6SM VCTS SCT020 BKN030CB BKN120
     FM010100 18004KT P6SM SCT040 BKN200
     FM011500 22006KT P6SM VCSH SCT025 BKN050=



000
FTUS42 KJAX 311921 AAC
TAFCRG
TAF AMD
KCRG 311921Z 3119/0118 VRB15G25KT 3SM +TSRA BR SCT015 BKN025CB
      OVC090
     FM312100 VRB05KT P6SM VCTS SCT020 BKN030CB BKN120
     FM010100 18004KT P6SM SCT040 BKN200
     FM011500 22006KT P6SM VCSH SCT025 BKN050=



000
FTUS42 KJAX 311917 AAA
TAFSSI
TAF AMD
KSSI 311917Z 3119/0118 10008KT P6SM SCT040 SCT250
     FM010200 VRB04KT P6SM SCT020 BKN100
     FM011500 11007KT P6SM VCSH SCT025 BKN040=



000
FTUS42 KJAX 311912 AAB
TAFCRG
TAF AMD
KCRG 311912Z 3119/0118 09005KT P6SM VCTS SCT020 BKN030CB BKN080
     FM010100 18004KT P6SM SCT040 BKN100
     FM011500 22006KT P6SM VCSH SCT025 BKN050=



000
FTUS42 KJAX 311823 AAA
TAFCRG
TAF AMD
KCRG 311823Z 3118/0118 VRB04KT P6SM SCT020 BKN035
     FM312000 11007KT P6SM VCSH BKN050
     FM010100 VRB04KT P6SM SCT040 BKN100
     FM011500 22006KT P6SM VCSH SCT025 BKN050=



000
FTUS42 KJAX 311721
TAFCRG
TAF
KCRG 311721Z 3118/0118 VRB04KT P6SM SCT020 BKN035
      TEMPO 3118/3120 BKN020
     FM312000 11007KT P6SM VCSH BKN050
     FM010100 VRB04KT P6SM SCT040 BKN100
     FM011500 22006KT P6SM VCSH SCT025 BKN050=



000
FTUS42 KJAX 311721
TAFCRG
TAF
KCRG 311721Z 3118/0118 VRB04KT P6SM SCT020 BKN035
      TEMPO 3118/3120 BKN020
     FM312000 11007KT P6SM VCSH BKN050
     FM010100 VRB04KT P6SM SCT040 BKN100
     FM011500 22006KT P6SM VCSH SCT025 BKN050=



000
FTUS42 KJAX 311721
TAFGNV
TAF
KGNV 311721Z 3118/0118 12006KT P6SM VCTS SCT025CB BKN040
     FM010200 VRB03KT P6SM SCT030 BKN100
     FM010900 00000KT P6SM SCT005 BKN025
     FM011500 15006KT P6SM VCSH SCT020 BKN035=



000
FTUS42 KJAX 311721
TAFJAX
TAF
KJAX 311721Z 3118/0118 VRB04KT P6SM SCT020 BKN035
     FM312000 11007KT P6SM VCSH BKN050
     FM010100 VRB04KT P6SM SCT040 BKN100
     FM011500 22006KT P6SM VCSH SCT025 BKN050=



000
FTUS42 KJAX 311721
TAFSSI
TAF
KSSI 311721Z 3118/0118 VRB05KT P6SM SCT020 BKN035
      TEMPO 3118/3120 BKN020
     FM312000 12009KT P6SM BKN040
     FM010200 VRB04KT P6SM SCT020 BKN100
     FM011500 11007KT P6SM VCSH SCT025 BKN040=



000
FTUS42 KJAX 311721
TAFGNV
TAF
KGNV 311721Z 3118/0118 12006KT P6SM VCTS SCT025CB BKN040
     FM010200 VRB03KT P6SM SCT030 BKN100
     FM010900 00000KT P6SM SCT005 BKN025
     FM011500 15006KT P6SM VCSH SCT020 BKN035=



000
FTUS42 KJAX 311721
TAFSSI
TAF
KSSI 311721Z 3118/0118 VRB05KT P6SM SCT020 BKN035
      TEMPO 3118/3120 BKN020
     FM312000 12009KT P6SM BKN040
     FM010200 VRB04KT P6SM SCT020 BKN100
     FM011500 11007KT P6SM VCSH SCT025 BKN040=



000
FTUS42 KJAX 311721
TAFJAX
TAF
KJAX 311721Z 3118/0118 VRB04KT P6SM SCT020 BKN035
     FM312000 11007KT P6SM VCSH BKN050
     FM010100 VRB04KT P6SM SCT040 BKN100
     FM011500 22006KT P6SM VCSH SCT025 BKN050=



000
FTUS42 KJAX 311613 AAE
TAFSSI
TAF AMD
KSSI 311613Z 3116/0112 VRB04KT P6SM SCT015 BKN025
     FM311800 15008KT P6SM VCTS SCT025CB BKN040
     FM010000 20007KT P6SM SCT020 BKN100=



000
FTUS42 KJAX 311612 AAD
TAFGNV
TAF AMD
KGNV 311612Z 3116/0112 VRB03KT P6SM SCT015 BKN025
      TEMPO 3116/3119 BKN015
     FM311900 20007KT P6SM VCTS SCT025CB BKN040
      TEMPO 3120/3122 3SM TSRA BKN025CB
     FM010000 20004KT P6SM SCT020 BKN100=



000
FTUS42 KJAX 311610 AAD
TAFJAX
TAF AMD
KJAX 311610Z 3116/0112 VRB04KT P6SM SCT015 BKN025
      TEMPO 3116/3119 BKN015
     FM311900 18008KT P6SM VCTS SCT025CB BKN040
     FM010000 20004KT P6SM SCT020 BKN100=



000
FTUS42 KJAX 311610 AAE
TAFCRG
TAF AMD
KCRG 311610Z 3116/0112 26006KT P6SM SCT015 BKN025
      TEMPO 3116/3119 BKN015
     FM311900 16008KT P6SM VCTS SCT025CB BKN040
     FM010000 20004KT P6SM SCT020 BKN100=



000
FTUS42 KJAX 311532 AAC
TAFGNV
TAF AMD
KGNV 311532Z 3116/0112 VRB03KT P6SM SCT025 BKN035
      TEMPO 3115/3117 BKN025
     FM311900 20007KT P6SM VCTS SCT025CB BKN040
      TEMPO 3120/3122 3SM TSRA BKN025CB
     FM010000 20004KT P6SM SCT020 BKN100=



000
FTUS42 KJAX 311532 AAC
TAFGNV
TAF AMD
KGNV 311532Z 3116/0112 VRB03KT P6SM SCT025 BKN035
      TEMPO 3115/3117 BKN025
     FM311900 20007KT P6SM VCTS SCT025CB BKN040
      TEMPO 3120/3122 3SM TSRA BKN025CB
     FM010000 20004KT P6SM SCT020 BKN100=



000
FTUS42 KJAX 311458 AAD
TAFSSI
TAF AMD
KSSI 311458Z 3115/0112 VRB04KT P6SM SCT010 BKN020
      TEMPO 3115/3117 BKN010
     FM311700 10005KT P6SM SCT020 BKN100
     FM311800 15008KT P6SM VCTS SCT025CB BKN040
     FM010000 20007KT P6SM SCT020 BKN100=



000
FTUS42 KJAX 311457 AAB
TAFGNV
TAF AMD
KGNV 311457Z 3115/0112 00000KT P6SM BKN006
     FM311700 VRB03KT P6SM SCT006 BKN100
     FM311900 20007KT P6SM VCTS SCT025CB BKN040
      TEMPO 3120/3122 3SM TSRA BKN025CB
     FM010000 20004KT P6SM SCT020 BKN100=



000
FTUS42 KJAX 311457 AAB
TAFGNV
TAF AMD
KGNV 311457Z 3115/0112 00000KT P6SM BKN006
     FM311700 VRB03KT P6SM SCT006 BKN100
     FM311900 20007KT P6SM VCTS SCT025CB BKN040
      TEMPO 3120/3122 3SM TSRA BKN025CB
     FM010000 20004KT P6SM SCT020 BKN100=



000
FTUS42 KJAX 311457 AAD
TAFCRG
TAF AMD
KCRG 311457Z 3115/0112 25006KT P6SM SCT015 BKN120
      TEMPO 3115/3117 BKN015
     FM311900 16008KT P6SM VCTS SCT025CB BKN040
     FM010000 20004KT P6SM SCT020 BKN100=



000
FTUS42 KJAX 311457 AAD
TAFCRG
TAF AMD
KCRG 311457Z 3115/0112 25006KT P6SM SCT015 BKN120
      TEMPO 3115/3117 BKN015
     FM311900 16008KT P6SM VCTS SCT025CB BKN040
     FM010000 20004KT P6SM SCT020 BKN100=



000
FTUS42 KJAX 311456 AAD
TAFJAX
TAF AMD
KJAX 311456Z 3115/0112 VRB04KT P6SM SCT025 BKN120
      TEMPO 3115/3117 BKN025
     FM311800 18008KT P6SM VCTS SCT025CB BKN040
     FM010000 20004KT P6SM SCT020 BKN100=



000
FTUS42 KJAX 311409 AAC
TAFSSI
TAF AMD
KSSI 311409Z 3114/0112 VRB04KT P6SM SCT008 BKN020
     FM311600 10005KT P6SM SCT020 BKN100
     FM311800 15008KT P6SM VCTS SCT025CB BKN040
     FM010000 20007KT P6SM SCT020 BKN100=



000
FTUS42 KJAX 311409 AAC
TAFSSI
TAF AMD
KSSI 311409Z 3114/0112 VRB04KT P6SM SCT008 BKN020
     FM311600 10005KT P6SM SCT020 BKN100
     FM311800 15008KT P6SM VCTS SCT025CB BKN040
     FM010000 20007KT P6SM SCT020 BKN100=



000
FTUS42 KJAX 311359 AAC
TAFCRG
TAF AMD
KCRG 311359Z 3114/0112 25006KT P6SM SCT020 BKN120
      TEMPO 3114/3115 BKN020
     FM311900 16008KT P6SM VCTS SCT025CB BKN040
     FM010000 20004KT P6SM SCT020 BKN100=



000
FTUS42 KJAX 311359 AAB
TAFJAX
TAF AMD
KJAX 311359Z 3114/0112 VRB04KT P6SM SCT015 BKN120
      TEMPO 3114/3115 BKN015
     FM311800 18008KT P6SM VCTS SCT025CB BKN040
     FM010000 20004KT P6SM SCT020 BKN100=



000
FTUS42 KJAX 311359 AAC
TAFCRG
TAF AMD
KCRG 311359Z 3114/0112 25006KT P6SM SCT020 BKN120
      TEMPO 3114/3115 BKN020
     FM311900 16008KT P6SM VCTS SCT025CB BKN040
     FM010000 20004KT P6SM SCT020 BKN100=



000
FTUS42 KJAX 311359 AAB
TAFJAX
TAF AMD
KJAX 311359Z 3114/0112 VRB04KT P6SM SCT015 BKN120
      TEMPO 3114/3115 BKN015
     FM311800 18008KT P6SM VCTS SCT025CB BKN040
     FM010000 20004KT P6SM SCT020 BKN100=



000
FTUS42 KJAX 311317 AAA
TAFGNV
TAF AMD
KGNV 311317Z 3113/0112 00000KT P6SM BKN006
     FM311500 VRB03KT P6SM SCT006 BKN100
     FM311800 20007KT P6SM VCTS SCT025CB BKN040
      TEMPO 3120/3122 3SM TSRA BKN025CB
     FM010000 20004KT P6SM SCT020 BKN100=



000
FTUS42 KJAX 311317 AAB
TAFSSI
TAF AMD
KSSI 311317Z 3113/0112 VRB04KT P6SM BKN005
     FM311500 10005KT P6SM SCT005 BKN100
     FM311800 15008KT P6SM VCTS SCT025CB BKN040
     FM010000 20007KT P6SM SCT020 BKN100=



000
FTUS42 KJAX 311317 AAB
TAFSSI
TAF AMD
KSSI 311317Z 3113/0112 VRB04KT P6SM BKN005
     FM311500 10005KT P6SM SCT005 BKN100
     FM311800 15008KT P6SM VCTS SCT025CB BKN040
     FM010000 20007KT P6SM SCT020 BKN100=



000
FTUS42 KJAX 311301 AAB
TAFJAX
TAF AMD
KJAX 311301Z 3113/0112 VRB04KT P6SM SCT008 BKN120
      TEMPO 3113/3115 4SM BR OVC008
     FM311800 18008KT P6SM VCTS SCT025CB BKN040
     FM010000 20004KT P6SM SCT020 BKN100=



000
FTUS42 KJAX 311301 AAB
TAFJAX
TAF AMD
KJAX 311301Z 3113/0112 VRB04KT P6SM SCT008 BKN120
      TEMPO 3113/3115 4SM BR OVC008
     FM311800 18008KT P6SM VCTS SCT025CB BKN040
     FM010000 20004KT P6SM SCT020 BKN100=



000
FTUS42 KJAX 311301 AAB
TAFCRG
TAF AMD
KCRG 311301Z 3113/0112 25006KT P6SM SCT015 BKN120
      TEMPO 3113/3115 BKN015
     FM311900 16008KT P6SM VCTS SCT025CB BKN040
     FM010000 20004KT P6SM SCT020 BKN100=



000
FTUS42 KJAX 311301 AAB
TAFCRG
TAF AMD
KCRG 311301Z 3113/0112 25006KT P6SM SCT015 BKN120
      TEMPO 3113/3115 BKN015
     FM311900 16008KT P6SM VCTS SCT025CB BKN040
     FM010000 20004KT P6SM SCT020 BKN100=



000
FTUS42 KJAX 311201 AAA
TAFSSI
TAF AMD
KSSI 311201Z 3112/0112 26005KT P6SM SCT003 BKN100
      TEMPO 3112/3113 OVC003
     FM311800 15008KT P6SM VCTS SCT025CB BKN040
     FM010000 20007KT P6SM SCT020 BKN100=



000
FTUS42 KJAX 311201 AAA
TAFSSI
TAF AMD
KSSI 311201Z 3112/0112 26005KT P6SM SCT003 BKN100
      TEMPO 3112/3113 OVC003
     FM311800 15008KT P6SM VCTS SCT025CB BKN040
     FM010000 20007KT P6SM SCT020 BKN100=



000
FTUS42 KJAX 311158 AAA
TAFCRG
TAF AMD
KCRG 311158Z 3112/0112 25006KT P6SM SCT025 BKN120
      TEMPO 3112/3114 BKN025
     FM311900 16008KT P6SM VCTS SCT025CB BKN040
     FM010000 20004KT P6SM SCT020 BKN100=



000
FTUS42 KJAX 311158 AAA
TAFCRG
TAF AMD
KCRG 311158Z 3112/0112 25006KT P6SM SCT025 BKN120
      TEMPO 3112/3114 BKN025
     FM311900 16008KT P6SM VCTS SCT025CB BKN040
     FM010000 20004KT P6SM SCT020 BKN100=



000
FTUS42 KJAX 311133 AAA
TAFJAX
TAF AMD
KJAX 311133Z 3112/0112 VRB04KT P6SM SCT012 BKN120
      TEMPO 3112/3114 BKN012
     FM311800 18008KT P6SM VCTS SCT025CB BKN040
     FM010000 20004KT P6SM SCT020 BKN100=



000
FTUS42 KJAX 311120
TAFJAX
TAF
KJAX 311120Z 3112/0112 25005KT P6SM SCT015 BKN120
     FM311800 18008KT P6SM VCTS SCT025CB BKN040
     FM010000 20004KT P6SM SCT020 BKN100=



000
FTUS42 KJAX 311120
TAFJAX
TAF
KJAX 311120Z 3112/0112 25005KT P6SM SCT015 BKN120
     FM311800 18008KT P6SM VCTS SCT025CB BKN040
     FM010000 20004KT P6SM SCT020 BKN100=



000
FTUS42 KJAX 311120
TAFCRG
TAF
KCRG 311120Z 3112/0112 25006KT P6SM SCT015 BKN120
      TEMPO 3112/3114 SCT008 BKN012
     FM311900 16008KT P6SM VCTS SCT025CB BKN040
     FM010000 20004KT P6SM SCT020 BKN100=



000
FTUS42 KJAX 311120
TAFSSI
TAF
KSSI 311120Z 3112/0112 26005KT P6SM VCSH SCT015 BKN120
      TEMPO 3112/3113 OVC003
     FM311800 15008KT P6SM VCTS SCT025CB BKN040
     FM010000 20007KT P6SM SCT020 BKN100=



000
FTUS42 KJAX 311120
TAFGNV
TAF
KGNV 311120Z 3112/0112 21005KT P6SM SCT015 BKN120
      TEMPO 3112/3114 OVC008
     FM311800 20007KT P6SM VCTS SCT025CB BKN040
      TEMPO 3120/3122 3SM TSRA BKN025CB
     FM010000 20004KT P6SM SCT020 BKN100=



000
FTUS42 KJAX 311120
TAFSSI
TAF
KSSI 311120Z 3112/0112 26005KT P6SM VCSH SCT015 BKN120
      TEMPO 3112/3113 OVC003
     FM311800 15008KT P6SM VCTS SCT025CB BKN040
     FM010000 20007KT P6SM SCT020 BKN100=



000
FTUS42 KJAX 311120
TAFCRG
TAF
KCRG 311120Z 3112/0112 25006KT P6SM SCT015 BKN120
      TEMPO 3112/3114 SCT008 BKN012
     FM311900 16008KT P6SM VCTS SCT025CB BKN040
     FM010000 20004KT P6SM SCT020 BKN100=



000
FTUS42 KJAX 311120
TAFGNV
TAF
KGNV 311120Z 3112/0112 21005KT P6SM SCT015 BKN120
      TEMPO 3112/3114 OVC008
     FM311800 20007KT P6SM VCTS SCT025CB BKN040
      TEMPO 3120/3122 3SM TSRA BKN025CB
     FM010000 20004KT P6SM SCT020 BKN100=



    US Dept of Commerce
    National Oceanic and Atmospheric Administration
    National Weather Service
    1325 East West Highway
    Silver Spring, MD 20910
    Page Author: NWS Internet Services Team
Disclaimer
Information Quality
Credits
Glossary
Privacy Policy
Freedom of Information Act (FOIA)
About Us
Career Opportunities